Portada
METAR-TAF:

METAR-TAF

Aeropuertos :

Aeropuerto de Salamanca

Salamanca, España

latitud: 40-57N, longitud: 005-30W, altitud: 793 m

Observación

El informe se hizo hace 38 minutos, a las 14:00 UTC
Viento 5 kt con dirección variable
Temperatura 17°C
Humedad 27%
Presión 1013 hPa
Visibilidad 10 km o más
Escasas nubes a una altura de 4800 ft

METAR: LESA 191400Z VRB05KT 9999 FEW048 17/M02 Q1013

Hora: 16:38 (14:38 UTC)

Pronóstico

El informe se hizo hace 3 horas y 38 minutos, a las 11:00 UTC
Pronóstico válido del 19 a las 12 UTC al 20 a las 12 UTC
Viento 5 kt con dirección variable
Visibilidad 10 km o más
Escasas nubes a una altura de 4000 ft
Temporalmente
del 19 a las 14 UTC al 19 a las 21 UTC
Viento 10 kt del oeste-noroeste

TAF: LESA 191100Z 1912/2012 VRB05KT 9999 FEW040 TX19/1916Z TN04/2005Z TEMPO 1914/1921 30010KT

Observaciones y pronósticos meteorológicos de más de 4000 aeropuertos (mensajes METAR y TAF).

Los puntos amarillos y rojos representan las estaciones disponibles.

Ponga el ratón en el punto deseado para ver el nombre de la estación.

Haga clic para ver las observaciones y los pronósticos meteorológicos.

Para cambiar el mapa : haga clic en los botones verdes con una cruz de color negro para hacer un zoom, en el botón verde con un guión para alejar o en las flechas verdes para mapas adyacentes.


METAR-TAF: